createdAt,value
2023-04-25T00:00:26.457Z,100.00
2023-04-25T00:02:54.378Z,100.00
2023-04-25T00:05:24.316Z,100.00
2023-04-25T00:07:52.291Z,100.00
2023-04-25T00:10:21.211Z,100.00
2023-04-25T00:12:51.350Z,100.00
2023-04-25T00:15:19.165Z,100.00
2023-04-25T00:17:48.369Z,100.00
2023-04-25T00:20:16.234Z,100.00
2023-04-25T00:22:43.992Z,100.00
2023-04-25T00:25:11.859Z,100.00
2023-04-25T00:27:40.137Z,100.00
2023-04-25T00:30:08.957Z,100.00
2023-04-25T00:32:36.897Z,100.00
2023-04-25T00:35:06.940Z,100.00
2023-04-25T00:37:34.777Z,100.00
2023-04-25T00:40:03.500Z,100.00
2023-04-25T00:42:32.978Z,100.00
2023-04-25T00:45:01.353Z,100.00
2023-04-25T00:47:30.833Z,100.00
2023-04-25T00:49:58.599Z,100.00
2023-04-25T00:52:27.806Z,100.00
2023-04-25T00:54:55.721Z,100.00
2023-04-25T00:57:23.499Z,100.00
2023-04-25T00:59:53.191Z,100.00
2023-04-25T01:02:24.249Z,100.00
2023-04-25T01:04:52.140Z,100.00
2023-04-25T01:07:19.996Z,100.00
2023-04-25T01:09:49.249Z,100.00
2023-04-25T01:12:17.057Z,100.00
2023-04-25T01:14:44.806Z,100.00
2023-04-25T01:17:12.738Z,100.00
2023-04-25T01:19:40.607Z,100.00
2023-04-25T01:22:11.270Z,100.00
2023-04-25T01:24:39.506Z,100.00
2023-04-25T01:27:07.967Z,100.00
2023-04-25T01:29:36.881Z,100.00
2023-04-25T01:32:05.144Z,100.00
2023-04-25T01:34:32.926Z,100.00
2023-04-25T01:37:02.630Z,100.00
2023-04-25T01:39:31.851Z,100.00
2023-04-25T01:42:01.323Z,100.00
2023-04-25T01:44:29.316Z,100.00
2023-04-25T01:46:57.148Z,100.00
2023-04-25T01:49:25.072Z,100.00
2023-04-25T01:51:52.932Z,100.00
2023-04-25T01:54:21.266Z,100.00
2023-04-25T01:56:53.810Z,100.00
2023-04-25T01:59:22.809Z,100.00
2023-04-25T02:01:50.697Z,100.00
2023-04-25T02:04:18.626Z,100.00
2023-04-25T02:06:46.910Z,100.00
2023-04-25T02:09:14.692Z,100.00
2023-04-25T02:11:42.645Z,100.00
2023-04-25T02:14:11.788Z,100.00
2023-04-25T02:16:40.989Z,100.00
2023-04-25T02:19:09.045Z,100.00
2023-04-25T02:21:37.567Z,100.00
2023-04-25T02:24:06.190Z,100.00
2023-04-25T02:26:33.970Z,100.00
2023-04-25T02:29:02.259Z,100.00
2023-04-25T02:31:31.359Z,100.00
2023-04-25T02:33:59.141Z,100.00
2023-04-25T02:36:27.339Z,100.00
2023-04-25T02:38:55.170Z,100.00
2023-04-25T02:41:22.944Z,100.00
2023-04-25T02:43:51.038Z,100.00
2023-04-25T02:46:25.531Z,100.00
2023-04-25T02:49:01.724Z,100.00
2023-04-25T02:51:29.455Z,100.00
2023-04-25T02:53:57.181Z,100.00
2023-04-25T02:56:27.090Z,100.00
2023-04-25T02:58:55.114Z,100.00
2023-04-25T03:01:23.167Z,100.00
2023-04-25T03:03:51.214Z,100.00
2023-04-25T03:06:20.907Z,100.00
2023-04-25T03:08:48.623Z,100.00
2023-04-25T03:11:16.493Z,100.00
2023-04-25T03:13:44.336Z,100.00
2023-04-25T03:16:12.104Z,100.00
2023-04-25T03:18:39.946Z,100.00
2023-04-25T03:21:07.759Z,100.00
2023-04-25T03:23:36.849Z,100.00
2023-04-25T03:26:04.995Z,100.00
2023-04-25T03:28:32.754Z,100.00
2023-04-25T03:31:00.490Z,100.00
2023-04-25T03:33:28.280Z,100.00
2023-04-25T03:35:56.041Z,100.00
2023-04-25T03:38:24.084Z,100.00
2023-04-25T03:40:54.032Z,100.00
2023-04-25T03:43:21.794Z,100.00
2023-04-25T03:45:49.610Z,100.00
2023-04-25T03:48:17.774Z,100.00
2023-04-25T03:50:45.538Z,100.00
2023-04-25T03:53:13.266Z,100.00
2023-04-25T03:55:42.387Z,100.00
2023-04-25T03:58:12.653Z,100.00
2023-04-25T04:00:40.792Z,100.00
2023-04-25T04:03:08.700Z,100.00
2023-04-25T04:05:36.651Z,100.00
2023-04-25T04:08:04.474Z,100.00
2023-04-25T04:10:32.242Z,100.00
2023-04-25T04:13:00.016Z,100.00
2023-04-25T04:15:29.130Z,100.00
2023-04-25T04:17:56.961Z,100.00
2023-04-25T04:20:24.915Z,100.00
2023-04-25T04:22:52.660Z,100.00
2023-04-25T04:25:20.426Z,100.00
2023-04-25T04:27:48.234Z,100.00
2023-04-25T04:30:16.783Z,100.00
2023-04-25T04:32:45.991Z,100.00
2023-04-25T04:35:13.821Z,100.00
2023-04-25T04:37:41.624Z,100.00
2023-04-25T04:40:10.956Z,100.00
2023-04-25T04:42:39.159Z,100.00
2023-04-25T04:45:07.685Z,100.00
2023-04-25T04:47:37.810Z,100.00
2023-04-25T04:50:08.316Z,100.00
2023-04-25T04:52:36.415Z,100.00
2023-04-25T04:55:04.594Z,100.00
2023-04-25T04:57:33.878Z,100.00
2023-04-25T05:00:02.186Z,100.00
2023-04-25T05:02:30.163Z,100.00
2023-04-25T05:04:58.636Z,100.00
2023-04-25T05:07:27.873Z,100.00
2023-04-25T05:09:55.598Z,100.00
2023-04-25T05:12:23.364Z,100.00
2023-04-25T05:14:51.216Z,100.00
2023-04-25T05:17:18.952Z,100.00
2023-04-25T05:19:46.971Z,100.00
2023-04-25T05:22:15.626Z,100.00
2023-04-25T05:24:44.810Z,100.00
2023-04-25T05:27:12.584Z,100.00
2023-04-25T05:29:40.398Z,100.00
2023-04-25T05:32:08.672Z,100.00
2023-04-25T05:34:36.552Z,100.00
2023-04-25T05:37:04.704Z,100.00
2023-04-25T05:39:32.455Z,100.00
2023-04-25T05:42:02.478Z,100.00
2023-04-25T05:44:30.400Z,100.00
2023-04-25T05:46:58.150Z,100.00
2023-04-25T05:49:25.929Z,100.00
2023-04-25T05:51:53.777Z,100.00
2023-04-25T05:54:21.504Z,100.00
2023-04-25T05:56:49.316Z,100.00
2023-04-25T05:59:19.478Z,100.00
2023-04-25T06:01:47.848Z,100.00
2023-04-25T06:04:15.816Z,100.00
2023-04-25T06:06:43.734Z,100.00
2023-04-25T06:09:13.340Z,99.01
2023-04-25T06:11:42.057Z,96.36
2023-04-25T06:14:09.887Z,94.80
2023-04-25T06:16:39.018Z,94.44
2023-04-25T06:19:06.741Z,92.58
2023-04-25T06:21:34.566Z,91.32
2023-04-25T06:24:02.760Z,90.01
2023-04-25T06:26:30.597Z,88.66
2023-04-25T06:28:58.386Z,87.87
2023-04-25T06:31:26.286Z,85.95
2023-04-25T06:33:56.262Z,85.71
2023-04-25T06:36:25.963Z,86.01
2023-04-25T06:38:53.804Z,86.46
2023-04-25T06:41:21.640Z,84.22
2023-04-25T06:43:49.398Z,84.41
2023-04-25T06:46:17.380Z,84.92
2023-04-25T06:48:45.208Z,86.85
2023-04-25T06:51:15.155Z,86.64
2023-04-25T06:53:42.902Z,85.04
2023-04-25T06:56:11.134Z,80.86
2023-04-25T06:58:38.987Z,80.74
2023-04-25T07:01:07.049Z,82.84
2023-04-25T07:03:34.962Z,81.33
2023-04-25T07:06:03.026Z,79.67
2023-04-25T07:08:32.199Z,81.22
2023-04-25T07:11:00.378Z,81.27
2023-04-25T07:13:28.215Z,83.30
2023-04-25T07:15:57.464Z,84.32
2023-04-25T07:18:25.512Z,84.67
2023-04-25T07:20:53.300Z,83.01
2023-04-25T07:23:21.280Z,81.03
2023-04-25T07:25:50.457Z,79.65
2023-04-25T07:28:19.678Z,78.47
2023-04-25T07:30:47.598Z,81.60
2023-04-25T07:33:15.691Z,79.31
2023-04-25T07:35:43.528Z,81.67
2023-04-25T07:38:11.373Z,83.80
2023-04-25T07:40:39.341Z,81.79
2023-04-25T07:43:08.532Z,79.05
2023-04-25T07:45:36.491Z,78.10
2023-04-25T07:48:05.263Z,76.68
2023-04-25T07:50:33.113Z,79.00
2023-04-25T07:53:00.861Z,76.81
2023-04-25T07:55:28.945Z,76.10
2023-04-25T07:57:56.808Z,77.65
2023-04-25T08:00:25.952Z,75.71
2023-04-25T08:02:53.737Z,74.65
2023-04-25T08:05:22.938Z,73.77
2023-04-25T08:07:51.039Z,73.17
2023-04-25T08:10:18.941Z,72.13
2023-04-25T08:12:46.726Z,72.76
2023-04-25T08:15:15.136Z,71.75
2023-04-25T08:17:44.965Z,74.34
2023-04-25T08:20:13.948Z,73.08
2023-04-25T08:22:41.843Z,72.24
2023-04-25T08:25:09.840Z,72.49
2023-04-25T08:27:37.703Z,75.22
2023-04-25T08:30:06.742Z,75.41
2023-04-25T08:32:34.931Z,72.44
2023-04-25T08:35:04.303Z,71.96
2023-04-25T08:37:32.024Z,71.72
2023-04-25T08:40:00.167Z,71.75
2023-04-25T08:42:30.883Z,72.00
2023-04-25T08:45:00.953Z,72.36
2023-04-25T08:47:30.363Z,72.56
2023-04-25T08:49:58.234Z,73.70
2023-04-25T08:52:32.570Z,71.11
2023-04-25T08:55:02.361Z,70.60
2023-04-25T08:57:31.723Z,69.66
2023-04-25T09:00:00.330Z,69.86
2023-04-25T09:02:28.493Z,69.19
2023-04-25T09:04:57.154Z,67.46
2023-04-25T09:07:26.680Z,67.63
2023-04-25T09:09:55.905Z,66.97
2023-04-25T09:12:24.698Z,67.55
2023-04-25T09:15:07.413Z,67.51
2023-04-25T09:17:35.292Z,65.89
2023-04-25T09:20:10.812Z,67.09
2023-04-25T09:22:40.066Z,67.20
2023-04-25T09:25:13.643Z,65.70
2023-04-25T09:27:52.128Z,65.67
2023-04-25T09:30:20.146Z,63.65
2023-04-25T09:32:49.028Z,64.94
2023-04-25T09:35:26.775Z,65.44
2023-04-25T09:37:54.708Z,64.08
2023-04-25T09:40:23.994Z,65.15
2023-04-25T09:42:51.873Z,64.44
2023-04-25T09:45:20.142Z,63.67
2023-04-25T09:47:47.924Z,65.23
2023-04-25T09:50:17.196Z,60.77
2023-04-25T09:52:45.537Z,60.50
2023-04-25T09:55:13.576Z,61.67
2023-04-25T09:57:43.376Z,62.20
2023-04-25T10:00:14.035Z,60.07
2023-04-25T10:02:45.234Z,61.08
2023-04-25T10:05:14.095Z,62.48
2023-04-25T10:07:42.762Z,58.79
2023-04-25T10:10:14.240Z,58.27
2023-04-25T10:12:45.229Z,58.72
2023-04-25T10:15:14.368Z,60.24
2023-04-25T10:17:42.442Z,60.60
2023-04-25T10:20:11.746Z,59.69
2023-04-25T10:22:43.352Z,62.00
2023-04-25T10:25:12.162Z,64.20
2023-04-25T10:27:41.320Z,65.28
2023-04-25T10:30:13.617Z,65.66
2023-04-25T10:32:41.502Z,66.97
2023-04-25T10:35:14.098Z,66.79
2023-04-25T10:37:59.679Z,68.31
2023-04-25T10:40:28.044Z,68.72
2023-04-25T10:42:57.227Z,72.65
2023-04-25T10:45:27.839Z,77.40
2023-04-25T10:47:56.598Z,81.45
2023-04-25T10:50:39.972Z,86.15
2023-04-25T10:53:17.050Z,90.38
2023-04-25T10:55:52.442Z,96.18
2023-04-25T10:58:24.405Z,94.08
2023-04-25T11:00:57.433Z,95.37
2023-04-25T11:03:26.574Z,95.52
2023-04-25T11:05:58.274Z,96.65
2023-04-25T11:08:40.156Z,96.30
2023-04-25T11:11:08.067Z,94.67
2023-04-25T11:13:35.853Z,90.21
2023-04-25T11:16:12.427Z,89.02
2023-04-25T11:18:43.386Z,87.80
2023-04-25T11:21:11.596Z,84.28
2023-04-25T11:23:39.694Z,80.33
2023-04-25T11:26:08.390Z,76.03
2023-04-25T11:28:36.560Z,74.42
2023-04-25T11:31:06.618Z,74.68
2023-04-25T11:33:34.395Z,70.26
2023-04-25T11:36:02.215Z,72.19
2023-04-25T11:38:30.203Z,72.65
2023-04-25T11:40:59.472Z,72.35
2023-04-25T11:43:27.766Z,74.74
2023-04-25T11:45:55.656Z,79.11
2023-04-25T11:51:13.186Z,73.91
2023-04-25T11:51:17.478Z,79.30
2023-04-25T11:53:43.904Z,73.70
2023-04-25T11:56:12.293Z,71.85
2023-04-25T11:58:58.819Z,71.06
2023-04-25T12:01:35.092Z,72.56
2023-04-25T12:04:14.781Z,72.76
2023-04-25T12:06:44.915Z,74.04
2023-04-25T12:09:14.541Z,75.42
2023-04-25T12:11:46.178Z,75.29
2023-04-25T12:14:14.491Z,75.64
2023-04-25T12:16:43.658Z,77.31
2023-04-25T12:19:15.764Z,78.58
2023-04-25T12:21:54.497Z,83.15
2023-04-25T12:24:28.954Z,85.45
2023-04-25T12:27:02.892Z,88.59
2023-04-25T12:29:41.865Z,86.42
2023-04-25T12:32:16.285Z,87.61
2023-04-25T12:34:45.987Z,85.63
2023-04-25T12:37:13.949Z,80.63
2023-04-25T12:39:41.949Z,80.94
2023-04-25T12:42:12.571Z,79.03
2023-04-25T12:44:40.973Z,79.75
2023-04-25T12:47:09.189Z,81.05
2023-04-25T12:49:37.033Z,80.98
2023-04-25T12:52:06.192Z,80.02
2023-04-25T12:54:34.038Z,81.27
2023-04-25T12:57:03.878Z,83.37
2023-04-25T12:59:31.828Z,78.83
2023-04-25T13:01:59.713Z,76.70
2023-04-25T13:04:27.762Z,73.68
2023-04-25T13:06:56.203Z,72.29
2023-04-25T13:09:25.515Z,72.23
2023-04-25T13:11:56.076Z,70.26
2023-04-25T13:14:25.176Z,69.32
2023-04-25T13:16:52.982Z,67.35
2023-04-25T13:19:20.776Z,67.26
2023-04-25T13:21:48.602Z,67.44
2023-04-25T13:24:16.672Z,65.52
2023-04-25T13:26:46.155Z,67.38
2023-04-25T13:29:14.480Z,66.28
2023-04-25T13:31:42.256Z,66.75
2023-04-25T13:34:10.037Z,68.39
2023-04-25T13:36:38.003Z,65.62
2023-04-25T13:39:06.181Z,64.13
2023-04-25T13:41:36.647Z,66.48
2023-04-25T13:44:06.187Z,66.77
2023-04-25T13:46:45.645Z,66.90
2023-04-25T13:49:14.685Z,65.96
2023-04-25T13:51:43.282Z,64.24
2023-04-25T13:54:11.478Z,63.84
2023-04-25T13:56:39.392Z,63.32
2023-04-25T13:59:08.500Z,62.63
2023-04-25T14:01:36.760Z,62.61
2023-04-25T14:04:06.148Z,62.77
2023-04-25T14:06:34.603Z,63.99
2023-04-25T14:09:02.642Z,63.08
2023-04-25T14:11:30.594Z,62.25
2023-04-25T14:13:58.346Z,62.47
2023-04-25T14:16:27.539Z,62.35
2023-04-25T14:18:55.597Z,63.72
2023-04-25T14:21:23.362Z,64.00
2023-04-25T14:23:51.392Z,63.76
2023-04-25T14:26:19.368Z,64.18
2023-04-25T14:28:47.306Z,64.90
2023-04-25T14:31:15.141Z,63.37
2023-04-25T14:33:44.360Z,64.46
2023-04-25T14:36:12.297Z,64.29
2023-04-25T14:38:40.106Z,63.66
2023-04-25T14:41:07.921Z,64.05
2023-04-25T14:43:36.243Z,63.19
2023-04-25T14:46:04.083Z,65.05
2023-04-25T14:48:32.336Z,66.04
2023-04-25T14:51:01.927Z,65.33
2023-04-25T14:53:29.864Z,64.44
2023-04-25T14:55:57.663Z,64.33
2023-04-25T14:58:25.870Z,63.86
2023-04-25T15:00:54.308Z,65.56
2023-04-25T15:03:22.387Z,64.16
2023-04-25T15:05:50.162Z,64.03
2023-04-25T15:08:19.252Z,66.50
2023-04-25T15:10:48.469Z,67.59
2023-04-25T15:13:16.584Z,70.32
2023-04-25T15:15:44.304Z,70.03
2023-04-25T15:18:12.185Z,69.88
2023-04-25T15:20:40.008Z,70.45
2023-04-25T15:23:07.746Z,71.85
2023-04-25T15:25:36.879Z,72.21
2023-04-25T15:28:05.642Z,73.75
2023-04-25T15:30:33.437Z,73.01
2023-04-25T15:33:01.441Z,72.45
2023-04-25T15:35:29.353Z,72.84
2023-04-25T15:37:57.169Z,72.81
2023-04-25T15:40:24.889Z,74.35
2023-04-25T15:42:55.089Z,75.13
2023-04-25T15:45:26.320Z,75.33
2023-04-25T15:47:56.042Z,76.10
2023-04-25T15:50:24.615Z,77.30
2023-04-25T15:52:53.261Z,77.10
2023-04-25T15:55:22.712Z,82.34
2023-04-25T15:57:51.334Z,85.57
2023-04-25T16:00:22.352Z,88.15
2023-04-25T16:02:50.830Z,91.92
2023-04-25T16:05:19.342Z,94.24
2023-04-25T16:07:47.944Z,96.62
2023-04-25T16:10:19.886Z,99.46
2023-04-25T16:12:48.965Z,100.00
2023-04-25T16:15:17.085Z,100.00
2023-04-25T16:17:46.686Z,100.00
2023-04-25T16:20:15.166Z,100.00
2023-04-25T16:22:44.735Z,100.00
2023-04-25T16:25:12.928Z,100.00
2023-04-25T16:27:40.957Z,100.00
2023-04-25T16:30:10.719Z,100.00
2023-04-25T16:32:39.845Z,100.00
2023-04-25T16:35:10.284Z,100.00
2023-04-25T16:37:38.303Z,100.00
2023-04-25T16:40:09.026Z,100.00
2023-04-25T16:42:37.309Z,100.00
2023-04-25T16:45:05.962Z,100.00
2023-04-25T16:47:33.784Z,100.00
2023-04-25T16:50:02.212Z,100.00
2023-04-25T16:52:31.611Z,100.00
2023-04-25T16:54:59.377Z,100.00
2023-04-25T16:57:27.219Z,100.00
2023-04-25T16:59:54.965Z,100.00
2023-04-25T17:02:22.821Z,100.00
2023-04-25T17:04:50.740Z,100.00
2023-04-25T17:07:24.280Z,100.00
2023-04-25T17:09:53.577Z,100.00
2023-04-25T17:12:22.299Z,100.00
2023-04-25T17:14:50.756Z,100.00
2023-04-25T17:17:19.380Z,100.00
2023-04-25T17:19:47.240Z,100.00
2023-04-25T17:22:15.228Z,100.00
2023-04-25T17:24:43.067Z,100.00
2023-04-25T17:27:12.755Z,100.00
2023-04-25T17:29:41.412Z,100.00
2023-04-25T17:32:09.208Z,100.00
2023-04-25T17:34:37.852Z,100.00
2023-04-25T17:37:05.898Z,100.00
2023-04-25T17:39:33.668Z,100.00
2023-04-25T17:42:02.487Z,100.00
2023-04-25T17:44:31.622Z,100.00
2023-04-25T17:47:01.184Z,100.00
2023-04-25T17:49:29.092Z,100.00
2023-04-25T17:51:56.897Z,100.00
2023-04-25T17:54:24.736Z,100.00
2023-04-25T17:56:52.989Z,100.00
2023-04-25T17:59:21.435Z,100.00
2023-04-25T18:01:50.775Z,100.00
2023-04-25T18:04:18.755Z,100.00
2023-04-25T18:06:46.566Z,100.00
2023-04-25T18:09:17.423Z,100.00
2023-04-25T18:11:45.341Z,100.00
2023-04-25T18:14:15.117Z,100.00
2023-04-25T18:16:43.772Z,100.00
2023-04-25T18:19:15.782Z,100.00
2023-04-25T18:21:45.320Z,100.00
2023-04-25T18:24:13.852Z,100.00
2023-04-25T18:26:42.106Z,100.00
2023-04-25T18:29:16.336Z,100.00
2023-04-25T18:31:50.056Z,100.00
2023-04-25T18:34:20.647Z,100.00
2023-04-25T18:36:48.511Z,100.00
2023-04-25T18:39:22.575Z,100.00
2023-04-25T18:41:58.181Z,100.00
2023-04-25T18:44:28.199Z,100.00
2023-04-25T18:46:56.087Z,100.00
2023-04-25T18:49:25.410Z,100.00
2023-04-25T18:51:56.147Z,100.00
2023-04-25T18:54:23.963Z,100.00
2023-04-25T18:56:51.827Z,100.00
2023-04-25T18:59:20.816Z,100.00
2023-04-25T19:01:49.941Z,100.00
2023-04-25T19:04:18.124Z,100.00
2023-04-25T19:06:49.865Z,100.00
2023-04-25T19:09:18.341Z,100.00
2023-04-25T19:11:46.762Z,100.00
2023-04-25T19:14:15.124Z,100.00
2023-04-25T19:16:42.986Z,100.00
2023-04-25T19:19:11.527Z,100.00
2023-04-25T19:21:39.431Z,100.00
2023-04-25T19:24:08.922Z,100.00
2023-04-25T19:26:36.822Z,100.00
2023-04-25T19:29:07.265Z,100.00
2023-04-25T19:31:35.969Z,100.00
2023-04-25T19:34:04.676Z,100.00
2023-04-25T19:36:32.855Z,100.00
2023-04-25T19:39:04.104Z,100.00
2023-04-25T19:41:35.077Z,100.00
2023-04-25T19:44:04.825Z,100.00
2023-04-25T19:46:32.784Z,100.00
2023-04-25T19:49:01.316Z,100.00
2023-04-25T19:51:29.490Z,100.00
2023-04-25T19:53:57.294Z,100.00
2023-04-25T19:56:26.410Z,100.00
2023-04-25T19:58:56.245Z,100.00
2023-04-25T20:01:24.023Z,100.00
2023-04-25T20:03:52.648Z,100.00
2023-04-25T20:06:20.932Z,100.00
2023-04-25T20:08:48.862Z,100.00
2023-04-25T20:11:16.622Z,100.00
2023-04-25T20:13:44.829Z,100.00
2023-04-25T20:16:19.627Z,100.00
2023-04-25T20:18:48.289Z,100.00
2023-04-25T20:21:16.872Z,100.00
2023-04-25T20:23:44.624Z,100.00
2023-04-25T20:26:13.000Z,100.00
2023-04-25T20:28:41.730Z,100.00
2023-04-25T20:31:10.588Z,100.00
2023-04-25T20:33:39.815Z,100.00
2023-04-25T20:36:07.826Z,100.00
2023-04-25T20:38:35.647Z,100.00
2023-04-25T20:41:03.720Z,100.00
2023-04-25T20:43:32.638Z,100.00
2023-04-25T20:46:00.721Z,100.00
2023-04-25T20:48:28.694Z,100.00
2023-04-25T20:50:58.565Z,100.00
2023-04-25T20:53:26.371Z,100.00
2023-04-25T20:55:54.163Z,100.00
2023-04-25T20:58:21.909Z,100.00
2023-04-25T21:00:50.723Z,100.00
2023-04-25T21:03:18.694Z,100.00
2023-04-25T21:05:46.771Z,100.00
2023-04-25T21:08:16.081Z,100.00
2023-04-25T21:10:44.041Z,100.00
2023-04-25T21:13:12.237Z,100.00
2023-04-25T21:15:40.056Z,100.00
2023-04-25T21:18:08.093Z,100.00
2023-04-25T21:20:36.057Z,100.00
2023-04-25T21:23:04.046Z,100.00
2023-04-25T21:25:33.741Z,100.00
2023-04-25T21:28:02.882Z,100.00
2023-04-25T21:30:31.055Z,100.00
2023-04-25T21:32:58.949Z,100.00
2023-04-25T21:35:26.773Z,100.00
2023-04-25T21:37:54.564Z,100.00
2023-04-25T21:40:22.597Z,100.00
2023-04-25T21:42:53.537Z,100.00
2023-04-25T21:45:21.702Z,100.00
2023-04-25T21:47:50.531Z,100.00
2023-04-25T21:50:18.636Z,100.00
2023-04-25T21:52:46.723Z,100.00
2023-04-25T21:55:14.730Z,100.00
2023-04-25T21:57:42.471Z,100.00
2023-04-25T22:00:24.340Z,100.00
2023-04-25T22:02:52.823Z,100.00
2023-04-25T22:05:22.311Z,100.00
2023-04-25T22:07:50.746Z,100.00
2023-04-25T22:10:19.642Z,100.00
2023-04-25T22:12:50.659Z,100.00
2023-04-25T22:15:23.419Z,100.00
2023-04-25T22:17:52.256Z,100.00
2023-04-25T22:20:24.092Z,100.00
2023-04-25T22:22:51.908Z,100.00
2023-04-25T22:25:19.825Z,100.00
2023-04-25T22:27:48.071Z,100.00
2023-04-25T22:30:16.226Z,100.00
2023-04-25T22:32:45.408Z,100.00
2023-04-25T22:35:13.190Z,100.00
2023-04-25T22:37:42.246Z,100.00
2023-04-25T22:40:11.296Z,100.00
2023-04-25T22:42:40.743Z,100.00
2023-04-25T22:45:09.945Z,100.00
2023-04-25T22:47:38.393Z,100.00
2023-04-25T22:50:13.204Z,100.00
2023-04-25T22:52:42.371Z,100.00
2023-04-25T22:55:12.211Z,100.00
2023-04-25T22:57:40.776Z,100.00
2023-04-25T23:00:15.869Z,100.00
2023-04-25T23:02:45.744Z,100.00
2023-04-25T23:05:16.078Z,100.00
2023-04-25T23:07:44.992Z,100.00
2023-04-25T23:10:13.317Z,100.00
2023-04-25T23:12:41.220Z,100.00
2023-04-25T23:15:10.169Z,100.00
2023-04-25T23:17:38.238Z,100.00
2023-04-25T23:20:07.818Z,100.00
2023-04-25T23:22:37.965Z,100.00
2023-04-25T23:25:09.994Z,100.00
2023-04-25T23:27:38.137Z,100.00
2023-04-25T23:30:07.004Z,100.00
2023-04-25T23:32:34.790Z,100.00
2023-04-25T23:35:02.585Z,100.00
2023-04-25T23:37:31.656Z,100.00
2023-04-25T23:40:00.786Z,100.00
2023-04-25T23:42:28.528Z,100.00
2023-04-25T23:44:56.263Z,100.00
2023-04-25T23:47:24.056Z,100.00
2023-04-25T23:49:51.829Z,100.00
2023-04-25T23:52:19.607Z,100.00
2023-04-25T23:54:47.456Z,100.00
2023-04-25T23:57:17.282Z,100.00
2023-04-25T23:59:46.000Z,100.00
